Time;durP1;ratioP1;P1;durP2;ratioP2;P2;SDS_P1;SDS_P2;PMS_P1;PMS_P2;Temp;Humidity;BMP_temperature;BMP_pressure;BME280_temperature;BME280_humidity;BME280_pressure;Samples;Min_cycle;Max_cycle;Signal;HPM_P1;HPM_P2
2021/10/07 00:00:40;;;;;;;41.07;16.63;;;;;;;10.12;100.00;102116.94;2107067;28;20382;-67
2021/10/07 00:01:40;;;;;;;46.90;16.13;;;;;;;10.13;100.00;102118.69;2107135;28;20027;-66
2021/10/07 00:02:40;;;;;;;29.20;13.30;;;;;;;10.13;100.00;102116.91;2106996;28;20031;-67
2021/10/07 00:03:40;;;;;;;38.97;13.47;;;;;;;10.12;100.00;102125.63;2106980;28;20020;-67
2021/10/07 00:04:41;;;;;;;28.90;13.03;;;;;;;10.13;100.00;102121.28;2107002;28;20027;-67
2021/10/07 00:05:41;;;;;;;35.53;15.87;;;;;;;10.15;100.00;102124.72;2106876;28;20039;-67
2021/10/07 00:06:41;;;;;;;35.97;16.30;;;;;;;10.18;100.00;102125.53;2107013;28;20024;-68
2021/10/07 00:07:42;;;;;;;30.70;13.97;;;;;;;10.18;100.00;102124.66;2106936;28;20472;-68
2021/10/07 00:08:42;;;;;;;34.77;15.83;;;;;;;10.21;100.00;102126.34;2106844;28;20765;-68
2021/10/07 00:09:42;;;;;;;46.23;15.13;;;;;;;10.22;100.00;102126.31;2107007;28;20385;-68
2021/10/07 00:10:42;;;;;;;37.70;15.23;;;;;;;10.22;100.00;102125.44;2106336;28;20378;-68
2021/10/07 00:11:43;;;;;;;34.77;13.43;;;;;;;10.22;100.00;102126.31;2106496;28;20048;-67
2021/10/07 00:12:43;;;;;;;45.80;15.10;;;;;;;10.23;100.00;102127.19;2107307;28;20095;-68
2021/10/07 00:13:44;;;;;;;34.37;14.90;;;;;;;10.22;100.00;102131.53;2107209;28;20020;-66
2021/10/07 00:14:44;;;;;;;41.75;14.68;;;;;;;10.22;100.00;102131.53;2106384;28;20110;-67
2021/10/07 00:15:44;;;;;;;27.70;12.23;;;;;;;10.21;100.00;102119.38;2106595;28;20085;-68
2021/10/07 00:16:45;;;;;;;44.77;13.53;;;;;;;10.23;100.00;102132.41;2107188;28;20034;-68
2021/10/07 00:17:45;;;;;;;32.20;17.27;;;;;;;10.24;100.00;102128.91;2106931;28;20481;-67
2021/10/07 00:18:48;;;;;;;39.70;15.60;;;;;;;10.23;100.00;102138.47;2106300;28;20648;-67
2021/10/07 00:19:49;;;;;;;34.97;14.55;;;;;;;10.22;100.00;102131.53;2106413;28;20024;-69
2021/10/07 00:20:49;;;;;;;37.20;14.77;;;;;;;10.21;100.00;102135.03;2106577;28;20095;-68
2021/10/07 00:21:50;;;;;;;34.67;13.80;;;;;;;10.22;100.00;102138.50;2106961;28;20485;-67
2021/10/07 00:22:50;;;;;;;40.30;14.80;;;;;;;10.20;100.00;102137.69;2106236;28;20031;-68
2021/10/07 00:24:07;;;;;;;35.30;12.10;;;;;;;10.22;100.00;102148.94;2106352;28;20079;-67
2021/10/07 00:25:09;;;;;;;51.30;14.07;;;;;;;10.20;100.00;102143.78;2106427;28;20028;-67
2021/10/07 00:26:10;;;;;;;49.72;14.18;;;;;;;10.22;100.00;102152.41;2106946;28;20085;-68
2021/10/07 00:27:10;;;;;;;43.43;15.93;;;;;;;10.24;100.00;102145.44;2106821;28;20111;-67
2021/10/07 00:28:11;;;;;;;45.33;12.03;;;;;;;10.24;100.00;102145.44;2107006;28;20024;-68
2021/10/07 00:30:32;;;;;;;60.90;14.35;;;;;;;10.27;100.00;102153.16;2106820;28;20103;-66
2021/10/07 00:31:36;;;;;;;44.73;13.83;;;;;;;10.26;100.00;102151.44;2106839;28;20032;-67
2021/10/07 00:32:42;;;;;;;56.97;14.40;;;;;;;10.24;100.00;102153.25;2107015;28;20028;-67
2021/10/07 00:39:14;;;;;;;34.42;11.13;;;;;;;10.21;100.00;102149.81;2097617;28;20037;-67
2021/10/07 00:40:15;;;;;;;42.38;17.30;;;;;;;10.20;100.00;102154.19;2100941;28;20044;-67
2021/10/07 00:41:15;;;;;;;23.50;12.80;;;;;;;10.20;100.00;102156.81;2106054;28;20024;-67
2021/10/07 00:42:16;;;;;;;47.43;16.07;;;;;;;10.22;100.00;102152.41;2106214;28;20012;-69
2021/10/07 00:43:17;;;;;;;;;;;;;;;10.23;100.00;102148.91;2107563;28;20023;-68
2021/10/07 00:44:17;;;;;;;29.95;13.15;;;;;;;10.23;100.00;102151.50;2106879;28;19908;-67
2021/10/07 00:45:17;;;;;;;43.20;11.50;;;;;;;10.25;100.00;102154.97;2106747;28;20016;-68
2021/10/07 00:46:17;;;;;;;44.10;13.00;;;;;;;10.26;100.00;102158.41;2106874;28;20032;-68
2021/10/07 00:47:18;;;;;;;44.77;13.13;;;;;;;10.26;100.00;102156.66;2106590;28;20070;-68
2021/10/07 00:48:20;;;;;;;31.77;11.67;;;;;;;10.26;100.00;102151.44;2106769;28;20026;-68
2021/10/07 00:49:22;;;;;;;39.78;13.20;;;;;;;10.27;100.00;102155.78;2106586;28;20020;-68
2021/10/07 00:50:23;;;;;;;57.88;14.55;;;;;;;10.27;100.00;102161.00;2106725;28;20020;-69
2021/10/07 00:51:23;;;;;;;43.93;15.10;;;;;;;10.27;100.00;102152.31;2106114;28;20107;-68
2021/10/07 00:52:23;;;;;;;46.40;15.27;;;;;;;10.25;100.00;102157.56;2106223;28;20016;-68
2021/10/07 00:53:23;;;;;;;39.20;12.80;;;;;;;10.26;100.00;102164.50;2106546;28;20024;-68
2021/10/07 00:54:26;;;;;;;40.13;13.37;;;;;;;10.23;100.00;102153.28;2106704;28;20050;-68
2021/10/07 00:55:26;;;;;;;69.03;17.80;;;;;;;10.24;100.00;102155.84;2106044;28;20020;-68
2021/10/07 00:56:26;;;;;;;57.07;14.77;;;;;;;10.21;100.00;102155.91;2106022;28;20019;-68
2021/10/07 00:57:27;;;;;;;65.17;15.97;;;;;;;10.20;100.00;102159.41;2106606;28;20028;-68
2021/10/07 00:58:27;;;;;;;49.97;12.57;;;;;;;10.21;100.00;102155.03;2106129;28;20119;-67
2021/10/07 00:59:28;;;;;;;46.70;13.03;;;;;;;10.18;100.00;102150.75;2106094;28;20018;-69
2021/10/07 01:00:28;;;;;;;50.35;14.57;;;;;;;10.20;100.00;102156.81;2106542;28;20027;-68
2021/10/07 01:01:28;;;;;;;58.37;11.63;;;;;;;10.18;100.00;102150.75;2106714;28;20396;-68
2021/10/07 01:02:29;;;;;;;49.60;13.43;;;;;;;10.16;100.00;102149.91;2106494;28;20104;-68
2021/10/07 01:03:33;;;;;;;61.80;13.07;;;;;;;10.17;100.00;102160.31;2106522;28;20032;-68
2021/10/07 01:04:34;;;;;;;36.22;12.93;;;;;;;10.12;100.00;102150.84;2106494;28;20012;-68
2021/10/07 01:05:35;;;;;;;36.10;13.23;;;;;;;10.12;100.00;102156.06;2106661;28;20024;-69
2021/10/07 01:06:37;;;;;;;44.80;11.23;;;;;;;10.09;100.00;102157.00;2106650;28;20103;-67
2021/10/07 01:07:38;;;;;;;50.50;12.15;;;;;;;10.10;100.00;102158.75;2106609;28;20019;-67
2021/10/07 01:08:38;;;;;;;32.00;11.55;;;;;;;10.07;100.00;102152.72;2106605;28;20031;-68
2021/10/07 01:09:39;;;;;;;41.90;13.43;;;;;;;10.05;100.00;102150.13;2106640;28;20055;-68
2021/10/07 01:10:40;;;;;;;25.70;13.57;;;;;;;10.03;100.00;102163.19;2106057;28;20020;-66
2021/10/07 01:11:40;;;;;;;43.23;12.50;;;;;;;10.08;100.00;102159.63;2106122;28;20509;-67
2021/10/07 01:12:40;;;;;;;44.53;11.60;;;;;;;10.07;100.00;102160.53;2106470;28;20051;-68
2021/10/07 01:13:41;;;;;;;30.07;10.83;;;;;;;10.05;100.00;102160.56;2106614;28;20108;-68
2021/10/07 01:14:47;;;;;;;39.72;13.88;;;;;;;10.03;100.00;102157.97;2106454;28;20024;-69
2021/10/07 01:15:47;;;;;;;33.00;13.35;;;;;;;10.04;100.00;102159.72;2106401;28;20032;-68
2021/10/07 01:16:48;;;;;;;15.90;9.07;;;;;;;10.08;100.00;102164.84;2106566;28;20496;-68
2021/10/07 01:17:48;;;;;;;41.70;9.53;;;;;;;10.05;100.00;102163.16;2106205;28;20515;-68
2021/10/07 01:18:48;;;;;;;33.23;10.10;;;;;;;10.03;100.00;102163.19;2106156;28;20076;-69
2021/10/07 01:19:53;;;;;;;34.90;12.87;;;;;;;10.02;100.00;102166.69;2106442;28;20034;-68
2021/10/07 01:20:53;;;;;;;23.83;10.23;;;;;;;10.01;100.00;102164.97;2105893;28;20060;-68
2021/10/07 01:21:54;;;;;;;30.97;10.97;;;;;;;10.01;100.00;102157.16;2106456;28;20358;-68
2021/10/07 01:22:54;;;;;;;38.47;9.73;;;;;;;10.01;100.00;102170.19;2106605;28;20024;-68
2021/10/07 01:23:55;;;;;;;24.63;9.93;;;;;;;10.01;100.00;102167.59;2106438;28;20020;-68
2021/10/07 01:24:56;;;;;;;41.50;9.97;;;;;;;10.00;100.00;102163.28;2106429;28;20024;-68
2021/10/07 01:25:56;;;;;;;24.60;11.40;;;;;;;9.99;100.00;102171.97;2106545;28;20032;-69
2021/10/07 01:26:56;;;;;;;27.67;11.13;;;;;;;9.99;100.00;102168.50;2106412;28;20084;-68
2021/10/07 01:27:57;;;;;;;34.00;9.90;;;;;;;9.97;100.00;102173.75;2106670;28;20034;-68
2021/10/07 01:28:57;;;;;;;32.57;10.20;;;;;;;9.98;100.00;102170.25;2106498;28;20561;-68
2021/10/07 01:30:01;;;;;;;34.17;8.87;;;;;;;9.98;100.00;102174.59;2106642;28;20425;-67
2021/10/07 01:31:01;;;;;;;34.58;9.88;;;;;;;9.96;100.00;102174.63;2106524;28;20024;-67
2021/10/07 01:32:03;;;;;;;16.20;9.17;;;;;;;9.92;100.00;102165.13;2106334;28;20063;-68
2021/10/07 01:33:04;;;;;;;15.27;7.68;;;;;;;9.90;100.00;102174.75;2106102;28;20040;-68
2021/10/07 01:34:04;;;;;;;15.77;8.27;;;;;;;9.89;100.00;102180.88;2106310;28;20070;-67
2021/10/07 01:35:06;;;;;;;24.03;11.40;;;;;;;9.88;100.00;102179.13;2105853;28;20024;-67
2021/10/07 01:36:07;;;;;;;28.15;10.30;;;;;;;9.88;100.00;102174.78;2105762;28;20028;-68
2021/10/07 01:37:07;;;;;;;25.73;10.20;;;;;;;9.89;100.00;102186.06;2106449;28;20062;-68
2021/10/07 01:38:08;;;;;;;24.03;9.97;;;;;;;9.86;100.00;102186.13;2106374;28;20052;-68
2021/10/07 01:39:08;;;;;;;32.03;9.20;;;;;;;9.85;100.00;102190.47;2105859;28;20044;-68
2021/10/07 01:40:08;;;;;;;41.13;10.60;;;;;;;9.83;100.00;102180.97;2105867;28;20439;-68
2021/10/07 01:41:09;;;;;;;18.08;9.10;;;;;;;9.85;100.00;102187.84;2106223;28;20358;-70
2021/10/07 01:42:09;;;;;;;29.67;10.17;;;;;;;9.83;100.00;102180.97;2106413;28;20097;-68
2021/10/07 01:43:10;;;;;;;22.90;10.70;;;;;;;9.85;100.00;102187.84;2106331;28;20034;-69
2021/10/07 01:44:10;;;;;;;21.83;10.63;;;;;;;9.83;100.00;102196.59;2106489;28;20500;-68
2021/10/07 01:45:11;;;;;;;23.08;10.90;;;;;;;9.83;100.00;102186.19;2105611;28;20027;-69
2021/10/07 01:46:12;;;;;;;22.90;10.48;;;;;;;9.84;100.00;102198.31;2097289;28;20115;-68
2021/10/07 01:47:12;;;;;;;29.90;11.30;;;;;;;9.84;100.00;102185.28;2105976;28;20089;-68
2021/10/07 01:48:13;;;;;;;15.10;10.47;;;;;;;9.85;100.00;102189.63;2106579;28;20030;-69
2021/10/07 01:49:13;;;;;;;27.17;12.95;;;;;;;9.84;100.00;102187.88;2106479;28;20065;-68
2021/10/07 01:50:15;;;;;;;25.73;11.55;;;;;;;9.84;100.00;102190.50;2106254;28;20024;-68
2021/10/07 01:51:15;;;;;;;31.25;13.02;;;;;;;9.82;100.00;102185.31;2106349;28;20031;-69
2021/10/07 01:52:16;;;;;;;28.33;11.37;;;;;;;9.84;100.00;102187.88;2106215;28;20020;-68
2021/10/07 01:53:16;;;;;;;21.60;8.60;;;;;;;9.83;100.00;102186.19;2105646;28;20052;-69
2021/10/07 01:54:16;;;;;;;26.23;10.57;;;;;;;9.83;100.00;102194.88;2105709;28;20142;-68
2021/10/07 01:55:17;;;;;;;24.13;8.27;;;;;;;9.85;100.00;102187.03;2106452;28;20063;-69
2021/10/07 01:56:17;;;;;;;22.90;11.03;;;;;;;9.87;100.00;102185.22;2106245;28;20024;-69
2021/10/07 01:57:17;;;;;;;17.50;10.20;;;;;;;9.87;100.00;102193.06;2106339;28;20020;-69
2021/10/07 01:58:18;;;;;;;22.13;10.53;;;;;;;9.88;100.00;102189.56;2106225;28;20031;-69
2021/10/07 01:59:18;;;;;;;21.77;12.40;;;;;;;9.90;100.00;102193.88;2105580;28;20058;-68
2021/10/07 02:00:18;;;;;;;18.97;10.33;;;;;;;9.92;100.00;102193.81;2097211;28;20024;-68
2021/10/07 02:01:19;;;;;;;25.27;10.73;;;;;;;9.92;100.00;102191.22;2105563;28;20488;-69
2021/10/07 02:02:19;;;;;;;21.17;10.13;;;;;;;9.94;100.00;102189.44;2105833;28;20496;-69
2021/10/07 02:03:19;;;;;;;17.33;9.50;;;;;;;9.95;100.00;102183.34;2106051;28;20052;-68
2021/10/07 02:04:19;;;;;;;28.87;10.60;;;;;;;9.97;100.00;102186.78;2106331;28;20103;-69
2021/10/07 02:05:20;;;;;;;25.77;10.50;;;;;;;9.99;100.00;102187.59;2106077;28;20028;-69
2021/10/07 02:06:20;;;;;;;21.77;11.37;;;;;;;10.02;100.00;102191.91;2106172;28;20020;-69
2021/10/07 02:07:20;;;;;;;20.70;11.15;;;;;;;10.02;100.00;102191.91;2106194;28;20051;-69
2021/10/07 02:08:21;;;;;;;23.27;12.77;;;;;;;10.02;100.00;102190.16;2106374;28;20039;-69
2021/10/07 02:09:22;;;;;;;27.67;12.23;;;;;;;10.04;100.00;102193.63;2106290;28;20804;-69
2021/10/07 02:10:22;;;;;;;22.23;13.45;;;;;;;10.05;100.00;102192.72;2106088;28;20039;-68
2021/10/07 02:11:23;;;;;;;29.67;12.60;;;;;;;10.07;100.00;102194.44;2105629;28;20024;-68
2021/10/07 02:12:23;;;;;;;27.60;12.40;;;;;;;10.09;100.00;102197.91;2105825;28;20030;-68
2021/10/07 02:13:23;;;;;;;30.23;13.07;;;;;;;10.11;100.00;102201.31;2106381;28;20054;-68
2021/10/07 02:14:24;;;;;;;24.63;12.67;;;;;;;10.11;100.00;102196.97;2106110;28;20067;-69
2021/10/07 02:15:25;;;;;;;36.35;13.90;;;;;;;10.13;100.00;102199.56;2105751;28;20049;-68
2021/10/07 02:16:25;;;;;;;55.57;14.20;;;;;;;10.13;100.00;102207.38;2105752;28;20465;-68
2021/10/07 02:17:25;;;;;;;41.00;13.50;;;;;;;10.14;100.00;102193.44;2106222;28;20016;-69
2021/10/07 02:18:26;;;;;;;50.53;15.17;;;;;;;10.13;100.00;102196.94;2106186;28;20032;-68
2021/10/07 02:19:27;;;;;;;32.45;12.57;;;;;;;10.12;100.00;102192.59;2106294;28;20141;-68
2021/10/07 02:20:27;;;;;;;42.23;14.10;;;;;;;10.13;100.00;102199.56;2106453;28;20090;-68
2021/10/07 02:21:27;;;;;;;65.27;13.20;;;;;;;10.14;100.00;102196.03;2106150;28;20023;-69
2021/10/07 02:22:28;;;;;;;40.33;11.77;;;;;;;10.14;100.00;102196.03;2106228;28;20126;-69
2021/10/07 02:23:28;;;;;;;49.53;12.17;;;;;;;10.15;100.00;102208.19;2106170;28;20369;-69
2021/10/07 02:24:28;;;;;;;53.37;12.00;;;;;;;10.16;100.00;102204.69;2105490;28;20028;-69
2021/10/07 02:25:29;;;;;;;37.83;10.50;;;;;;;10.16;100.00;102204.69;2105657;28;20035;-69
2021/10/07 02:26:29;;;;;;;38.13;11.23;;;;;;;10.16;100.00;102209.91;2105393;28;20425;-69
2021/10/07 02:27:29;;;;;;;46.77;13.03;;;;;;;10.18;100.00;102208.13;2097226;28;20392;-69
2021/10/07 02:28:29;;;;;;;42.40;12.73;;;;;;;10.17;100.00;102206.44;2105757;28;20361;-69
2021/10/07 02:29:30;;;;;;;49.40;12.97;;;;;;;10.19;100.00;102212.47;2106175;28;20024;-68
2021/10/07 02:30:30;;;;;;;52.00;12.07;;;;;;;10.21;100.00;102218.53;2105485;28;20024;-69
2021/10/07 02:31:30;;;;;;;25.53;10.17;;;;;;;10.20;100.00;102224.66;2105677;28;20115;-69
2021/10/07 02:32:30;;;;;;;28.30;10.90;;;;;;;10.22;100.00;102211.53;2105710;28;20024;-69
2021/10/07 02:33:31;;;;;;;28.87;10.63;;;;;;;10.21;100.00;102218.53;2107795;28;20524;-69
2021/10/07 02:34:31;;;;;;;35.20;10.80;;;;;;;10.21;100.00;102210.69;2107937;28;20666;-68
2021/10/07 02:35:32;;;;;;;33.53;9.57;;;;;;;10.21;100.00;102208.09;2107936;28;20023;-69
2021/10/07 02:36:32;;;;;;;29.42;10.32;;;;;;;10.22;100.00;102215.03;2107268;28;20397;-69
2021/10/07 02:37:33;;;;;;;28.30;12.60;;;;;;;10.23;100.00;102215.88;2107179;28;20016;-69
2021/10/07 02:38:33;;;;;;;26.52;11.98;;;;;;;10.23;100.00;102210.69;2107734;28;20060;-69
2021/10/07 02:39:34;;;;;;;21.35;9.00;;;;;;;10.26;100.00;102215.81;2107119;28;20032;-69
2021/10/07 02:40:34;;;;;;;40.13;12.07;;;;;;;10.26;100.00;102216.69;2107103;28;20020;-69
2021/10/07 02:41:34;;;;;;;29.43;11.17;;;;;;;10.29;100.00;102226.19;2107684;28;20111;-69
2021/10/07 02:42:35;;;;;;;32.80;11.93;;;;;;;10.27;100.00;102217.56;2107768;28;20020;-69
2021/10/07 02:43:35;;;;;;;32.30;11.70;;;;;;;10.26;100.00;102227.13;2107705;28;20027;-69
2021/10/07 02:44:35;;;;;;;26.70;10.87;;;;;;;10.27;100.00;102223.59;2107660;28;20449;-69
2021/10/07 02:45:35;;;;;;;36.03;13.57;;;;;;;10.29;100.00;102227.06;2107716;28;20027;-69
2021/10/07 02:46:36;;;;;;;38.00;13.50;;;;;;;10.28;100.00;102224.47;2107715;28;20043;-68
2021/10/07 02:47:36;;;;;;;58.33;13.00;;;;;;;10.28;100.00;102225.34;2107787;28;20093;-68
2021/10/07 02:48:37;;;;;;;32.10;9.88;;;;;;;10.29;100.00;102224.47;2107665;28;20028;-69
2021/10/07 02:49:37;;;;;;;37.13;10.97;;;;;;;10.30;100.00;102228.78;2107741;28;20054;-68
2021/10/07 02:50:38;;;;;;;45.53;12.00;;;;;;;10.28;100.00;102225.34;2107613;28;20421;-69
2021/10/07 02:51:38;;;;;;;49.33;12.18;;;;;;;10.28;100.00;102217.53;2107714;28;20028;-69
2021/10/07 02:52:38;;;;;;;31.57;10.70;;;;;;;10.30;100.00;102222.72;2107837;28;20369;-68
2021/10/07 02:53:39;;;;;;;26.00;10.30;;;;;;;10.31;100.00;102220.06;2107677;28;20062;-69
2021/10/07 02:54:39;;;;;;;43.17;11.83;;;;;;;10.30;100.00;102218.34;2107453;28;20028;-69
2021/10/07 02:55:39;;;;;;;51.00;11.97;;;;;;;10.34;100.00;102231.34;2106934;28;20027;-69
2021/10/07 02:56:40;;;;;;;44.60;11.30;;;;;;;10.33;100.00;102220.03;2107308;28;20078;-69
2021/10/07 02:57:41;;;;;;;53.70;12.73;;;;;;;10.33;100.00;102227.00;2107537;28;20028;-68
2021/10/07 02:58:41;;;;;;;63.30;11.98;;;;;;;10.33;100.00;102227.00;2107709;28;20019;-68
2021/10/07 02:59:42;;;;;;;49.13;13.13;;;;;;;10.33;100.00;102227.00;2106973;28;20035;-69
2021/10/07 03:00:43;;;;;;;;;;;;;;;10.34;100.00;102228.72;2107799;28;20062;-69
2021/10/07 03:01:43;;;;;;;48.03;10.77;;;;;;;10.35;100.00;102233.03;2107626;28;19931;-69
2021/10/07 03:02:43;;;;;;;47.53;13.73;;;;;;;10.34;100.00;102236.56;2107551;28;20027;-69
2021/10/07 03:03:44;;;;;;;41.53;12.60;;;;;;;10.33;100.00;102238.28;2107501;28;20073;-69
2021/10/07 03:04:44;;;;;;;44.40;13.17;;;;;;;10.31;100.00;102235.72;2107574;28;20059;-69
2021/10/07 03:05:44;;;;;;;30.67;11.97;;;;;;;10.30;100.00;102238.38;2107529;28;20072;-69
2021/10/07 03:06:44;;;;;;;35.53;11.70;;;;;;;10.30;100.00;102239.22;2107550;28;20096;-69
2021/10/07 03:07:45;;;;;;;24.20;10.30;;;;;;;10.29;100.00;102240.13;2107581;28;20023;-69
2021/10/07 03:08:45;;;;;;;34.10;10.73;;;;;;;10.28;100.00;102246.22;2107542;28;20024;-69
2021/10/07 03:09:45;;;;;;;34.93;11.63;;;;;;;10.28;100.00;102246.22;2107448;28;20028;-69
2021/10/07 03:10:45;;;;;;;28.97;10.03;;;;;;;10.26;100.00;102250.59;2107563;28;20031;-69
2021/10/07 03:11:46;;;;;;;36.20;10.93;;;;;;;10.24;100.00;102248.91;2107460;28;20075;-69
2021/10/07 03:12:47;;;;;;;32.57;12.30;;;;;;;10.23;100.00;102248.03;2107471;28;20069;-69
2021/10/07 03:13:47;;;;;;;37.97;10.85;;;;;;;10.22;100.00;102251.53;2106911;28;20055;-69
2021/10/07 03:14:47;;;;;;;25.77;9.47;;;;;;;10.22;100.00;102250.69;2106816;28;20035;-69
2021/10/07 03:15:47;;;;;;;31.90;10.30;;;;;;;10.23;100.00;102252.41;2098506;28;20099;-69
2021/10/07 03:16:48;;;;;;;35.03;10.37;;;;;;;10.21;100.00;102243.75;2106798;28;20081;-69
2021/10/07 03:17:48;;;;;;;28.40;9.87;;;;;;;10.20;100.00;102247.25;2107634;28;20061;-69
2021/10/07 03:18:48;;;;;;;26.67;10.43;;;;;;;10.19;100.00;102251.59;2107384;28;20039;-69
2021/10/07 03:19:48;;;;;;;19.67;9.73;;;;;;;10.17;100.00;102251.63;2107376;28;20107;-69
2021/10/07 03:20:49;;;;;;;24.43;8.67;;;;;;;10.16;100.00;102254.25;2107409;28;20107;-68
2021/10/07 03:21:49;;;;;;;36.37;9.60;;;;;;;10.16;100.00;102249.03;2107358;28;20028;-70
2021/10/07 03:22:49;;;;;;;23.47;9.30;;;;;;;10.16;100.00;102251.63;2107808;28;20035;-68
2021/10/07 03:23:49;;;;;;;23.60;9.03;;;;;;;10.16;100.00;102254.25;2107499;28;20051;-69
2021/10/07 03:24:51;;;;;;;23.77;9.40;;;;;;;10.16;100.00;102259.47;2107348;28;20530;-69
2021/10/07 03:25:51;;;;;;;23.95;8.93;;;;;;;10.16;100.00;102256.88;2107632;28;20059;-69
2021/10/07 03:26:51;;;;;;;15.97;8.23;;;;;;;10.18;100.00;102260.31;2107727;28;20187;-69
2021/10/07 03:27:51;;;;;;;20.73;9.03;;;;;;;10.18;100.00;102260.31;2107580;28;20054;-69
2021/10/07 03:28:52;;;;;;;26.97;9.33;;;;;;;10.18;100.00;102255.09;2107637;28;20063;-69
2021/10/07 03:29:52;;;;;;;42.43;9.97;;;;;;;10.18;100.00;102260.31;2107646;28;20058;-69
2021/10/07 03:30:52;;;;;;;14.27;8.30;;;;;;;10.17;100.00;102264.66;2107429;28;20042;-69
2021/10/07 03:31:53;;;;;;;37.50;9.20;;;;;;;10.16;100.00;102269.91;2106888;28;20020;-68
2021/10/07 03:32:53;;;;;;;21.75;7.93;;;;;;;10.14;100.00;102262.13;2106875;28;20039;-68
2021/10/07 03:33:54;;;;;;;19.17;8.70;;;;;;;10.16;100.00;102269.91;2107635;28;20536;-69
2021/10/07 03:34:54;;;;;;;24.30;8.67;;;;;;;10.16;100.00;102268.16;2107524;28;20040;-68
2021/10/07 03:35:54;;;;;;;21.27;9.17;;;;;;;10.17;100.00;102269.03;2107477;28;20122;-68
2021/10/07 03:36:54;;;;;;;19.17;8.73;;;;;;;10.17;100.00;102274.25;2107471;28;20032;-68
2021/10/07 03:37:55;;;;;;;22.23;10.13;;;;;;;10.17;100.00;102269.03;2106599;28;20031;-69
2021/10/07 03:38:55;;;;;;;22.20;10.30;;;;;;;10.17;100.00;102271.66;2107003;28;20024;-68
2021/10/07 03:39:55;;;;;;;21.13;9.57;;;;;;;10.16;100.00;102272.50;2107351;28;20153;-69
2021/10/07 03:40:57;;;;;;;20.07;8.27;;;;;;;10.16;100.00;102276.00;2107450;28;20039;-68
2021/10/07 03:41:57;;;;;;;14.73;7.90;;;;;;;10.17;100.00;102272.50;2107278;28;20035;-68
2021/10/07 03:42:58;;;;;;;18.07;9.50;;;;;;;10.17;100.00;102277.72;2106633;28;20542;-68
2021/10/07 03:43:58;;;;;;;19.85;8.10;;;;;;;10.18;100.00;102275.97;2097630;28;20059;-69
2021/10/07 03:45:01;;;;;;;21.93;9.93;;;;;;;10.18;100.00;102281.19;2106674;28;20026;-69
2021/10/07 03:46:01;;;;;;;25.55;9.55;;;;;;;10.18;100.00;102282.06;2107144;28;20031;-69
2021/10/07 03:47:02;;;;;;;28.67;9.10;;;;;;;10.18;100.00;102281.19;2107443;28;20114;-69
2021/10/07 03:48:03;;;;;;;;;;;;;;;10.20;100.00;102283.78;2107352;28;20023;-69
2021/10/07 03:49:03;;;;;;;17.90;8.57;;;;;;;10.18;100.00;102286.41;2106923;28;19908;-69
2021/10/07 03:50:04;;;;;;;28.30;8.67;;;;;;;10.20;100.00;102282.03;2107181;28;20024;-69
2021/10/07 03:51:05;;;;;;;28.73;9.55;;;;;;;10.22;100.00;102288.06;2107166;28;20024;-69
2021/10/07 03:52:05;;;;;;;23.13;9.97;;;;;;;10.21;100.00;102281.13;2106538;28;20028;-69
2021/10/07 03:53:05;;;;;;;22.10;8.80;;;;;;;10.20;100.00;102281.16;2106594;28;20072;-69
2021/10/07 03:54:05;;;;;;;34.37;7.97;;;;;;;10.20;100.00;102282.03;2106494;28;20086;-68
2021/10/07 03:55:06;;;;;;;23.17;9.27;;;;;;;10.18;100.00;102286.41;2106365;28;20526;-68
2021/10/07 03:56:07;;;;;;;24.23;8.13;;;;;;;10.18;100.00;102291.63;2107258;28;20111;-68
2021/10/07 03:57:07;;;;;;;33.10;7.65;;;;;;;10.18;100.00;102292.50;2107330;28;20031;-70
2021/10/07 03:58:07;;;;;;;27.13;7.70;;;;;;;10.17;100.00;102284.69;2107291;28;20036;-68
2021/10/07 03:59:08;;;;;;;26.70;8.37;;;;;;;10.16;100.00;102286.44;2106966;28;20028;-69
2021/10/07 04:00:09;;;;;;;26.03;8.00;;;;;;;10.17;100.00;102295.13;2107153;28;20059;-69
2021/10/07 04:01:10;;;;;;;37.20;9.20;;;;;;;10.19;100.00;102301.16;2107130;28;20024;-69
2021/10/07 04:02:10;;;;;;;35.47;8.43;;;;;;;10.21;100.00;102294.19;2107137;28;20069;-69
2021/10/07 04:03:10;;;;;;;24.65;9.45;;;;;;;10.22;100.00;102293.28;2107131;28;20073;-70
2021/10/07 04:04:10;;;;;;;49.30;9.30;;;;;;;10.23;100.00;102294.16;2107035;28;20285;-69
2021/10/07 04:05:11;;;;;;;38.77;9.43;;;;;;;10.24;100.00;102301.97;2107050;28;20020;-69
2021/10/07 04:06:11;;;;;;;20.50;9.10;;;;;;;10.27;100.00;102304.50;2107075;28;20039;-68
2021/10/07 04:07:11;;;;;;;29.13;8.37;;;;;;;10.26;100.00;102312.34;2107167;28;20089;-69
2021/10/07 04:08:11;;;;;;;18.53;6.77;;;;;;;10.25;100.00;102308.91;2106622;28;20055;-68
2021/10/07 04:09:12;;;;;;;22.30;9.17;;;;;;;10.26;100.00;102310.59;2106599;28;20468;-68
2021/10/07 04:10:12;;;;;;;29.70;9.60;;;;;;;10.26;100.00;102308.00;2107097;28;20472;-69
2021/10/07 04:11:12;;;;;;;32.13;9.17;;;;;;;10.26;100.00;102310.59;2107010;28;20028;-69
2021/10/07 04:12:12;;;;;;;20.93;9.63;;;;;;;10.25;100.00;102305.41;2106384;28;20008;-69
2021/10/07 04:13:13;;;;;;;25.27;8.57;;;;;;;10.27;100.00;102301.88;2106397;28;20036;-69
2021/10/07 04:14:13;;;;;;;28.67;6.73;;;;;;;10.28;100.00;102308.84;2107045;28;20027;-69
2021/10/07 04:15:13;;;;;;;12.60;5.67;;;;;;;10.29;100.00;102307.06;2107324;28;20024;-69
2021/10/07 04:16:14;;;;;;;31.03;8.27;;;;;;;10.30;100.00;102316.66;2107295;28;20028;-69
2021/10/07 04:17:14;;;;;;;25.73;7.70;;;;;;;10.30;100.00;102312.28;2107088;28;20024;-69
2021/10/07 04:18:16;;;;;;;35.87;7.97;;;;;;;10.29;100.00;102315.78;2107216;28;20020;-69
2021/10/07 04:19:18;;;;;;;38.67;8.68;;;;;;;10.30;100.00;102320.09;2107094;28;20024;-69
2021/10/07 04:20:19;;;;;;;18.30;7.25;;;;;;;10.30;100.00;102322.72;2106923;28;20020;-69
2021/10/07 04:21:19;;;;;;;42.00;9.70;;;;;;;10.31;100.00;102323.59;2106930;28;20477;-69
2021/10/07 04:22:19;;;;;;;24.97;9.70;;;;;;;10.31;100.00;102318.38;2106936;28;20039;-69
2021/10/07 04:23:20;;;;;;;28.63;9.83;;;;;;;10.33;100.00;102316.56;2106177;28;20024;-69
2021/10/07 04:24:20;;;;;;;26.63;7.07;;;;;;;10.35;100.00;102319.16;2106231;28;20027;-69
2021/10/07 04:25:20;;;;;;;29.50;7.25;;;;;;;10.33;100.00;102320.94;2106315;28;20066;-69
2021/10/07 04:26:21;;;;;;;33.93;9.53;;;;;;;10.35;100.00;102319.16;2106215;28;19912;-69
2021/10/07 04:27:21;;;;;;;38.00;9.30;;;;;;;10.33;100.00;102320.94;2106409;28;20049;-69
2021/10/07 04:28:22;;;;;;;28.55;7.97;;;;;;;10.34;100.00;102323.53;2106221;28;20453;-69
2021/10/07 04:29:22;;;;;;;31.20;9.30;;;;;;;10.35;100.00;102329.59;2106261;28;20036;-69
2021/10/07 04:30:22;;;;;;;26.80;7.83;;;;;;;10.34;100.00;102331.38;2106511;28;20027;-68
2021/10/07 04:31:23;;;;;;;43.00;9.13;;;;;;;10.33;100.00;102326.16;2106837;28;20028;-68
2021/10/07 04:32:23;;;;;;;23.33;7.07;;;;;;;10.36;100.00;102336.53;2106971;28;20032;-69
2021/10/07 04:33:23;;;;;;;45.00;10.47;;;;;;;10.36;100.00;102326.97;2106762;28;20079;-69
2021/10/07 04:34:23;;;;;;;27.77;8.37;;;;;;;10.38;100.00;102334.75;2106775;28;20081;-69
2021/10/07 04:35:23;;;;;;;36.60;9.30;;;;;;;10.39;100.00;102331.25;2106926;28;20024;-68
2021/10/07 04:36:24;;;;;;;38.93;8.20;;;;;;;10.38;100.00;102326.94;2106777;28;20020;-68
2021/10/07 04:37:24;;;;;;;26.97;8.07;;;;;;;10.37;100.00;102333.06;2106918;28;20042;-69
2021/10/07 04:38:24;;;;;;;36.13;8.43;;;;;;;10.34;100.00;102325.28;2106302;28;20052;-69
2021/10/07 04:39:24;;;;;;;24.93;6.90;;;;;;;10.36;100.00;102331.31;2106297;28;20028;-70
2021/10/07 04:40:26;;;;;;;21.03;6.87;;;;;;;10.36;100.00;102337.41;2106505;28;20024;-70
2021/10/07 04:41:26;;;;;;;;;;;;;;;10.37;100.00;102322.63;2107628;28;20453;-70